Time;durP1;ratioP1;P1;durP2;ratioP2;P2;SDS_P1;SDS_P2;PMS_P1;PMS_P2;Temp;Humidity;BMP_temperature;BMP_pressure;BME280_temperature;BME280_humidity;BME280_pressure;Samples;Min_cycle;Max_cycle;Signal;HPM_P1;HPM_P2
2022/06/17 00:02:06;;;;;;;10.77;6.88;;;;;;;;;;6152555;23;20019;-83
2022/06/17 00:04:33;;;;;;;9.90;6.65;;;;;;;;;;6152933;23;20041;-82
2022/06/17 00:07:03;;;;;;;17.67;7.00;;;;;;;;;;6151652;23;20022;-82
2022/06/17 00:09:31;;;;;;;10.60;7.25;;;;;;;;;;6152534;23;20011;-82
2022/06/17 00:12:01;;;;;;;10.10;6.88;;;;;;;;;;6153134;23;20026;-81
2022/06/17 00:14:31;;;;;;;10.52;7.60;;;;;;;;;;6155512;23;20070;-83
2022/06/17 00:16:59;;;;;;;10.25;7.15;;;;;;;;;;6129120;23;20026;-81
2022/06/17 00:19:26;;;;;;;13.95;7.03;;;;;;;;;;6127526;23;20034;-82
2022/06/17 00:21:54;;;;;;;11.23;7.00;;;;;;;;;;6152409;23;20066;-83
2022/06/17 00:24:21;;;;;;;10.82;6.90;;;;;;;;;;6153109;23;20101;-83
2022/06/17 00:26:48;;;;;;;10.50;6.50;;;;;;;;;;6127168;23;20197;-83
2022/06/17 00:29:17;;;;;;;8.13;6.32;;;;;;;;;;6153968;23;20013;-82
2022/06/17 00:31:45;;;;;;;13.00;7.30;;;;;;;;;;6151393;23;20105;-82
2022/06/17 00:34:12;;;;;;;11.63;6.43;;;;;;;;;;6151423;23;20070;-83
2022/06/17 00:36:39;;;;;;;11.93;6.70;;;;;;;;;;6151343;23;20025;-83
2022/06/17 00:39:12;;;;;;;10.18;6.65;;;;;;;;;;6151434;23;20019;-84
2022/06/17 00:41:39;;;;;;;11.95;6.55;;;;;;;;;;6152038;23;20106;-83
2022/06/17 00:44:17;;;;;;;10.27;6.72;;;;;;;;;;6151382;23;20031;-84
2022/06/17 00:46:50;;;;;;;13.20;6.88;;;;;;;;;;6152608;23;20018;-83
2022/06/17 00:49:18;;;;;;;;;;;;;;;;;;6168777;23;20018;-81
2022/06/17 00:52:00;;;;;;;9.90;6.97;;;;;;;;;;6179166;23;44582;-83
2022/06/17 00:54:31;;;;;;;10.35;7.40;;;;;;;;;;6180861;23;20053;-83
2022/06/17 00:56:58;;;;;;;11.80;7.93;;;;;;;;;;6180821;23;20250;-83
2022/06/17 00:59:25;;;;;;;11.00;7.47;;;;;;;;;;6180631;23;20034;-84
2022/06/17 01:02:00;;;;;;;11.73;7.53;;;;;;;;;;6181390;23;20776;-83
2022/06/17 01:04:41;;;;;;;12.02;7.05;;;;;;;;;;6182434;23;20211;-84
2022/06/17 01:07:21;;;;;;;11.40;7.63;;;;;;;;;;6182075;23;20775;-84
2022/06/17 01:09:57;;;;;;;11.50;7.25;;;;;;;;;;6154790;23;20057;-83
2022/06/17 01:12:32;;;;;;;9.23;7.35;;;;;;;;;;6182467;23;20055;-83
2022/06/17 01:14:59;;;;;;;10.70;7.25;;;;;;;;;;6181677;23;20081;-84
2022/06/17 01:17:26;;;;;;;14.40;7.22;;;;;;;;;;6182100;23;20734;-83
2022/06/17 01:19:54;;;;;;;11.57;8.05;;;;;;;;;;6181632;23;20026;-83
2022/06/17 01:22:21;;;;;;;11.05;7.55;;;;;;;;;;6181128;23;20038;-84
2022/06/17 01:24:49;;;;;;;10.30;7.97;;;;;;;;;;6181861;23;20033;-84
2022/06/17 01:27:19;;;;;;;16.73;8.07;;;;;;;;;;6180402;23;20014;-83
2022/06/17 01:29:47;;;;;;;16.75;8.50;;;;;;;;;;6156054;23;20464;-84
2022/06/17 01:32:15;;;;;;;10.68;7.90;;;;;;;;;;6181231;23;20029;-83
2022/06/17 01:34:45;;;;;;;11.88;8.32;;;;;;;;;;6180046;23;20052;-84
2022/06/17 01:37:12;;;;;;;10.90;8.43;;;;;;;;;;6179086;23;20081;-84
2022/06/17 01:39:41;;;;;;;13.68;8.55;;;;;;;;;;6179554;23;20105;-84
2022/06/17 01:42:09;;;;;;;13.27;8.48;;;;;;;;;;6153142;23;20045;-83
2022/06/17 01:44:38;;;;;;;13.13;8.27;;;;;;;;;;6178633;23;20070;-83
2022/06/17 01:47:11;;;;;;;11.48;8.65;;;;;;;;;;6178580;23;20049;-83
2022/06/17 01:49:43;;;;;;;13.02;8.65;;;;;;;;;;6179486;23;20014;-84
2022/06/17 01:52:33;;;;;;;13.80;8.20;;;;;;;;;;6179820;23;20018;-83
2022/06/17 01:55:12;;;;;;;13.60;8.35;;;;;;;;;;6179246;23;20105;-83
2022/06/17 01:57:43;;;;;;;13.00;8.40;;;;;;;;;;6179549;23;20033;-83
2022/06/17 02:00:16;;;;;;;11.77;8.85;;;;;;;;;;6179060;23;20033;-83
2022/06/17 02:02:44;;;;;;;14.25;9.07;;;;;;;;;;6179650;23;20058;-83
2022/06/17 02:05:12;;;;;;;11.65;9.30;;;;;;;;;;6180331;23;20022;-83
2022/06/17 02:07:52;;;;;;;12.10;9.10;;;;;;;;;;6179971;23;20014;-83
2022/06/17 02:10:20;;;;;;;13.73;8.82;;;;;;;;;;6180527;23;20041;-83
2022/06/17 02:12:47;;;;;;;13.02;7.60;;;;;;;;;;6179658;23;20070;-83
2022/06/17 02:15:14;;;;;;;11.10;8.65;;;;;;;;;;6179943;23;20077;-83
2022/06/17 02:17:44;;;;;;;13.93;9.73;;;;;;;;;;6180349;23;20029;-83
2022/06/17 02:20:12;;;;;;;10.52;8.77;;;;;;;;;;6180490;23;20109;-83
2022/06/17 02:22:39;;;;;;;12.25;9.20;;;;;;;;;;6179308;23;20070;-84
2022/06/17 02:25:11;;;;;;;11.05;7.65;;;;;;;;;;6180365;23;20010;-83
2022/06/17 02:27:39;;;;;;;12.20;9.50;;;;;;;;;;6155055;23;20054;-84
2022/06/17 02:30:07;;;;;;;12.55;8.63;;;;;;;;;;6181207;23;20003;-84
2022/06/17 02:32:35;;;;;;;14.80;8.98;;;;;;;;;;6181068;23;20018;-83
2022/06/17 02:35:11;;;;;;;14.90;9.75;;;;;;;;;;6180798;23;20062;-85
2022/06/17 02:37:38;;;;;;;13.95;9.50;;;;;;;;;;6181511;23;20025;-83
2022/06/17 02:40:22;;;;;;;13.32;8.75;;;;;;;;;;6181807;23;20058;-83
2022/06/17 02:42:49;;;;;;;13.25;9.75;;;;;;;;;;6183041;23;20034;-84
2022/06/17 02:45:18;;;;;;;14.07;9.90;;;;;;;;;;6181835;23;20029;-83
2022/06/17 02:47:46;;;;;;;14.48;9.82;;;;;;;;;;6181442;23;20132;-84
2022/06/17 02:50:31;;;;;;;12.15;10.05;;;;;;;;;;6183422;23;20001;-83
2022/06/17 02:53:01;;;;;;;12.30;9.82;;;;;;;;;;6182262;23;20021;-85
2022/06/17 02:55:32;;;;;;;14.35;9.60;;;;;;;;;;6182338;23;20025;-84
2022/06/17 02:58:16;;;;;;;11.82;8.70;;;;;;;;;;6182562;23;20026;-84
2022/06/17 03:00:44;;;;;;;10.48;7.90;;;;;;;;;;6181704;23;20078;-83
2022/06/17 03:03:12;;;;;;;10.73;8.40;;;;;;;;;;6183092;23;20029;-83
2022/06/17 03:05:41;;;;;;;10.27;7.82;;;;;;;;;;6183035;23;20060;-83
2022/06/17 03:08:18;;;;;;;13.93;8.60;;;;;;;;;;6181722;23;20026;-84
2022/06/17 03:10:46;;;;;;;11.93;8.43;;;;;;;;;;6182760;23;20097;-83
2022/06/17 03:13:19;;;;;;;11.52;7.97;;;;;;;;;;6182477;23;20073;-83
2022/06/17 03:15:47;;;;;;;10.32;8.60;;;;;;;;;;6182929;23;20018;-83
2022/06/17 03:18:15;;;;;;;12.43;9.15;;;;;;;;;;6182029;23;20050;-83
2022/06/17 03:20:43;;;;;;;11.43;8.63;;;;;;;;;;6183681;23;20025;-83
2022/06/17 03:23:16;;;;;;;15.40;8.52;;;;;;;;;;6156980;23;20026;-84
2022/06/17 03:25:50;;;;;;;13.30;9.00;;;;;;;;;;6183237;23;20046;-83
2022/06/17 03:28:20;;;;;;;12.60;8.70;;;;;;;;;;6182469;23;20109;-85
2022/06/17 03:30:49;;;;;;;11.95;8.80;;;;;;;;;;6182004;23;20041;-83
2022/06/17 03:33:16;;;;;;;15.02;9.02;;;;;;;;;;6183487;23;20038;-84
2022/06/17 03:35:45;;;;;;;14.35;9.20;;;;;;;;;;6156919;23;20022;-83
2022/06/17 03:38:15;;;;;;;10.05;7.50;;;;;;;;;;6183306;23;20042;-83
2022/06/17 03:40:47;;;;;;;13.20;9.43;;;;;;;;;;6183124;23;20332;-84
2022/06/17 03:43:19;;;;;;;14.60;9.55;;;;;;;;;;6183666;23;20042;-83
2022/06/17 03:46:01;;;;;;;11.60;9.05;;;;;;;;;;6183192;23;20067;-83
2022/06/17 03:48:46;;;;;;;14.73;8.27;;;;;;;;;;6182607;23;20022;-84
2022/06/17 03:51:18;;;;;;;12.35;9.13;;;;;;;;;;6182461;23;20058;-83
2022/06/17 03:53:46;;;;;;;11.80;8.75;;;;;;;;;;6181679;23;20101;-85
2022/06/17 03:56:24;;;;;;;10.40;8.60;;;;;;;;;;6183164;23;20006;-83
2022/06/17 03:58:52;;;;;;;15.00;9.02;;;;;;;;;;6182870;23;20005;-84
2022/06/17 04:01:25;;;;;;;12.55;8.77;;;;;;;;;;6183574;23;20007;-83
2022/06/17 04:03:56;;;;;;;9.82;7.80;;;;;;;;;;6158732;23;20026;-83
2022/06/17 04:06:36;;;;;;;13.40;7.95;;;;;;;;;;6183473;23;20022;-83
2022/06/17 04:09:06;;;;;;;13.52;9.40;;;;;;;;;;6183844;23;20010;-84
2022/06/17 04:11:35;;;;;;;12.18;8.38;;;;;;;;;;6183148;23;20029;-83
2022/06/17 04:14:04;;;;;;;11.75;8.07;;;;;;;;;;6182913;23;20033;-84
2022/06/17 04:16:35;;;;;;;16.98;9.80;;;;;;;;;;6182030;23;20023;-83
2022/06/17 04:19:14;;;;;;;12.18;9.23;;;;;;;;;;6182419;23;20022;-83
2022/06/17 04:21:41;;;;;;;14.95;9.27;;;;;;;;;;6182863;23;20068;-83
2022/06/17 04:24:18;;;;;;;12.68;8.27;;;;;;;;;;6181859;23;20018;-83
2022/06/17 04:26:48;;;;;;;13.70;9.35;;;;;;;;;;6182877;23;20042;-84
2022/06/17 04:29:19;;;;;;;13.70;9.48;;;;;;;;;;6182212;23;20053;-83
2022/06/17 04:31:53;;;;;;;14.13;9.25;;;;;;;;;;6182676;23;20045;-84
2022/06/17 04:34:21;;;;;;;17.13;9.30;;;;;;;;;;6182476;23;20022;-83
2022/06/17 04:36:53;;;;;;;17.25;9.98;;;;;;;;;;6156178;23;20021;-82
2022/06/17 04:39:24;;;;;;;14.48;9.35;;;;;;;;;;6182685;23;20021;-83
2022/06/17 04:41:53;;;;;;;15.32;9.65;;;;;;;;;;6182544;23;20043;-83
2022/06/17 04:44:20;;;;;;;11.85;9.02;;;;;;;;;;6180664;23;20051;-83
2022/06/17 04:46:51;;;;;;;12.70;10.20;;;;;;;;;;6181044;23;20046;-85
2022/06/17 04:49:20;;;;;;;14.77;10.05;;;;;;;;;;6182778;23;20061;-84
2022/06/17 04:51:47;;;;;;;15.05;10.35;;;;;;;;;;6182700;23;20030;-83
2022/06/17 04:54:15;;;;;;;12.32;8.90;;;;;;;;;;6183047;23;20373;-83
2022/06/17 04:56:43;;;;;;;14.80;9.35;;;;;;;;;;6158382;23;20018;-84
2022/06/17 04:59:28;;;;;;;16.20;9.45;;;;;;;;;;6183125;23;20018;-83
2022/06/17 05:01:56;;;;;;;14.63;9.88;;;;;;;;;;6184488;23;20021;-85
2022/06/17 05:04:23;;;;;;;12.48;9.52;;;;;;;;;;6183591;23;20070;-83
2022/06/17 05:06:51;;;;;;;13.50;10.30;;;;;;;;;;6184006;23;20018;-84
2022/06/17 05:09:24;;;;;;;17.15;11.38;;;;;;;;;;6183028;23;20018;-85
2022/06/17 05:11:53;;;;;;;17.48;10.15;;;;;;;;;;6184496;23;20029;-84
2022/06/17 05:14:25;;;;;;;14.48;9.57;;;;;;;;;;6183838;23;20024;-84
2022/06/17 05:16:52;;;;;;;12.43;9.63;;;;;;;;;;6159657;23;20032;-83
2022/06/17 05:19:24;;;;;;;14.30;9.90;;;;;;;;;;6185035;23;20014;-84
2022/06/17 05:21:51;;;;;;;13.77;9.35;;;;;;;;;;6184962;23;20066;-84
2022/06/17 05:24:18;;;;;;;15.32;9.52;;;;;;;;;;6184691;23;20010;-85
2022/06/17 05:26:45;;;;;;;15.70;9.55;;;;;;;;;;6185232;23;20051;-85
2022/06/17 05:29:12;;;;;;;13.35;8.85;;;;;;;;;;6185026;23;20041;-85
2022/06/17 05:31:39;;;;;;;11.73;8.95;;;;;;;;;;6185636;23;20029;-86
2022/06/17 05:34:07;;;;;;;15.07;10.13;;;;;;;;;;6185085;23;20010;-85
2022/06/17 05:36:34;;;;;;;13.70;9.60;;;;;;;;;;6185815;23;20017;-85
2022/06/17 05:39:01;;;;;;;17.60;9.32;;;;;;;;;;6185598;23;20014;-84
2022/06/17 05:41:28;;;;;;;11.77;9.02;;;;;;;;;;6185617;23;20014;-86
2022/06/17 05:43:55;;;;;;;18.52;9.50;;;;;;;;;;6185246;23;20021;-85
2022/06/17 05:46:23;;;;;;;13.32;9.00;;;;;;;;;;6159962;23;20006;-84
2022/06/17 05:48:50;;;;;;;16.65;9.25;;;;;;;;;;6185351;23;20017;-85
2022/06/17 05:51:17;;;;;;;16.70;9.18;;;;;;;;;;6184831;23;20021;-84
2022/06/17 05:53:44;;;;;;;13.25;9.10;;;;;;;;;;6185353;23;20010;-84
2022/06/17 05:56:11;;;;;;;15.45;9.35;;;;;;;;;;6160179;23;20033;-84
2022/06/17 05:58:40;;;;;;;16.35;9.27;;;;;;;;;;6185244;23;20093;-85
2022/06/17 06:01:09;;;;;;;15.43;8.82;;;;;;;;;;6185833;23;20007;-85
2022/06/17 06:03:36;;;;;;;16.73;8.77;;;;;;;;;;6185113;23;20014;-84
2022/06/17 06:06:05;;;;;;;14.43;8.68;;;;;;;;;;6184911;23;20042;-84
2022/06/17 06:08:35;;;;;;;15.52;9.00;;;;;;;;;;6184684;23;20026;-84
2022/06/17 06:11:04;;;;;;;18.50;8.95;;;;;;;;;;6185385;23;20018;-85
2022/06/17 06:13:31;;;;;;;15.80;8.30;;;;;;;;;;6184332;23;20639;-85
2022/06/17 06:16:00;;;;;;;15.65;8.55;;;;;;;;;;6185246;23;20006;-84
2022/06/17 06:18:29;;;;;;;13.90;8.63;;;;;;;;;;6184907;23;20016;-85
2022/06/17 06:20:57;;;;;;;17.23;8.50;;;;;;;;;;6184862;23;20028;-84
2022/06/17 06:23:24;;;;;;;17.10;7.90;;;;;;;;;;6184755;23;20029;-86
2022/06/17 06:25:51;;;;;;;14.35;8.73;;;;;;;;;;6158595;23;19999;-84
2022/06/17 06:28:20;;;;;;;16.38;7.70;;;;;;;;;;6185262;23;20037;-85
2022/06/17 06:30:51;;;;;;;9.80;7.55;;;;;;;;;;6185439;23;20022;-84
2022/06/17 06:33:19;;;;;;;13.73;7.63;;;;;;;;;;6160641;23;20041;-85
2022/06/17 06:35:46;;;;;;;16.13;8.57;;;;;;;;;;6186138;23;20029;-85
2022/06/17 06:38:13;;;;;;;12.27;8.27;;;;;;;;;;6186453;23;20017;-86
2022/06/17 06:40:41;;;;;;;14.63;8.35;;;;;;;;;;6186790;23;20015;-85
2022/06/17 06:43:13;;;;;;;12.85;7.53;;;;;;;;;;6186407;23;20010;-86
2022/06/17 06:45:40;;;;;;;14.60;8.50;;;;;;;;;;6182541;23;20026;-84
2022/06/17 06:48:09;;;;;;;12.30;7.85;;;;;;;;;;6173540;23;20022;-84
2022/06/17 06:50:37;;;;;;;15.60;7.57;;;;;;;;;;6178653;23;20105;-84
2022/06/17 06:53:10;;;;;;;11.52;7.72;;;;;;;;;;6182351;23;20025;-83
2022/06/17 06:55:37;;;;;;;13.98;8.25;;;;;;;;;;6180928;23;20041;-85
2022/06/17 06:58:15;;;;;;;15.07;7.63;;;;;;;;;;6180472;23;20084;-83
2022/06/17 07:00:45;;;;;;;11.70;7.68;;;;;;;;;;6182228;23;20018;-83
2022/06/17 07:03:13;;;;;;;13.77;7.47;;;;;;;;;;6183818;23;20292;-84
2022/06/17 07:05:44;;;;;;;12.82;7.50;;;;;;;;;;6183666;23;20082;-83
2022/06/17 07:08:13;;;;;;;16.45;7.32;;;;;;;;;;6181652;23;20018;-83
2022/06/17 07:10:41;;;;;;;10.38;6.82;;;;;;;;;;6181022;23;20045;-84
2022/06/17 07:13:09;;;;;;;14.05;7.18;;;;;;;;;;6180540;23;20052;-83
2022/06/17 07:15:37;;;;;;;12.13;7.28;;;;;;;;;;6180961;23;20090;-83
2022/06/17 07:18:05;;;;;;;12.88;6.63;;;;;;;;;;6173144;23;20069;-83
2022/06/17 07:20:37;;;;;;;10.15;6.60;;;;;;;;;;6172731;23;20011;-86
2022/06/17 07:23:05;;;;;;;13.53;6.23;;;;;;;;;;6181896;23;20070;-85
2022/06/17 07:25:36;;;;;;;16.88;6.72;;;;;;;;;;6152096;23;20672;-84
2022/06/17 07:28:12;;;;;;;10.95;6.43;;;;;;;;;;6173562;23;20635;-83
2022/06/17 07:30:40;;;;;;;7.85;6.00;;;;;;;;;;6170668;23;20101;-83
2022/06/17 07:33:07;;;;;;;12.02;5.88;;;;;;;;;;6144412;23;20901;-83
2022/06/17 07:35:34;;;;;;;10.88;5.35;;;;;;;;;;6168546;23;20050;-83
2022/06/17 07:40:54;;;;;;;11.93;5.88;;;;;;;;;;6171446;23;20030;-83
2022/06/17 07:43:21;;;;;;;10.85;5.32;;;;;;;;;;6170813;23;20456;-83
2022/06/17 07:45:48;;;;;;;14.50;5.38;;;;;;;;;;6168622;23;20034;-83
2022/06/17 07:48:19;;;;;;;8.82;5.28;;;;;;;;;;6169353;23;20022;-84
2022/06/17 07:50:46;;;;;;;9.48;5.30;;;;;;;;;;6168011;23;20015;-83
2022/06/17 07:53:16;;;;;;;8.98;5.30;;;;;;;;;;6166090;23;20385;-83
2022/06/17 07:55:45;;;;;;;13.48;5.63;;;;;;;;;;6167985;23;20030;-83
2022/06/17 07:58:13;;;;;;;9.68;5.03;;;;;;;;;;6167727;23;20026;-83
2022/06/17 08:00:43;;;;;;;8.88;5.00;;;;;;;;;;6167554;23;20492;-83
2022/06/17 08:03:12;;;;;;;8.32;4.18;;;;;;;;;;6171840;23;20085;-85
2022/06/17 08:05:45;;;;;;;6.65;4.20;;;;;;;;;;6171417;23;20093;-83
2022/06/17 08:08:21;;;;;;;14.97;4.57;;;;;;;;;;6149256;23;20025;-83
2022/06/17 08:10:50;;;;;;;11.68;4.55;;;;;;;;;;6170678;23;20226;-84
2022/06/17 08:13:17;;;;;;;10.40;4.85;;;;;;;;;;6170395;23;20049;-84
2022/06/17 08:15:44;;;;;;;14.15;4.55;;;;;;;;;;6170094;23;20029;-84
2022/06/17 08:18:12;;;;;;;8.45;4.30;;;;;;;;;;6171401;23;20011;-83
2022/06/17 08:20:41;;;;;;;8.30;4.57;;;;;;;;;;6171565;23;20062;-84
2022/06/17 08:23:11;;;;;;;11.52;4.00;;;;;;;;;;6171090;23;20808;-84
2022/06/17 08:25:42;;;;;;;6.65;4.10;;;;;;;;;;6171894;23;20026;-83
2022/06/17 08:28:12;;;;;;;10.73;5.13;;;;;;;;;;6146398;23;20022;-81
2022/06/17 08:30:43;;;;;;;11.13;4.30;;;;;;;;;;6173617;23;20010;-84
2022/06/17 08:33:10;;;;;;;12.63;5.50;;;;;;;;;;6146059;23;20022;-84
2022/06/17 08:36:01;;;;;;;8.18;4.70;;;;;;;;;;6173437;23;20036;-82
2022/06/17 08:38:29;;;;;;;8.57;5.43;;;;;;;;;;6171634;23;20025;-82
2022/06/17 08:41:00;;;;;;;8.75;5.22;;;;;;;;;;6170961;23;20026;-82
2022/06/17 08:43:41;;;;;;;9.50;4.72;;;;;;;;;;6172623;23;20050;-82
2022/06/17 08:46:27;;;;;;;8.45;4.88;;;;;;;;;;6142712;23;20018;-83
2022/06/17 08:49:04;;;;;;;10.95;4.82;;;;;;;;;;6170512;23;20022;-82
2022/06/17 08:51:37;;;;;;;12.05;5.20;;;;;;;;;;6171677;23;20026;-82
2022/06/17 08:54:10;;;;;;;11.85;4.85;;;;;;;;;;6184126;23;20006;-83
2022/06/17 08:56:40;;;;;;;10.50;5.07;;;;;;;;;;6184436;23;20021;-83
2022/06/17 08:59:14;;;;;;;11.43;5.05;;;;;;;;;;6183993;23;20069;-83
2022/06/17 09:01:54;;;;;;;9.65;4.35;;;;;;;;;;6184408;23;19995;-83
2022/06/17 09:04:27;;;;;;;11.60;4.72;;;;;;;;;;6185152;23;20006;-83
2022/06/17 09:07:13;;;;;;;7.88;4.20;;;;;;;;;;6184039;23;20010;-83
2022/06/17 09:09:50;;;;;;;8.35;4.45;;;;;;;;;;6183944;23;20025;-83
2022/06/17 09:12:20;;;;;;;9.93;4.25;;;;;;;;;;6185001;23;19999;-83
2022/06/17 09:14:50;;;;;;;;;;;;;;;;;;6182809;23;20028;-82
2022/06/17 09:17:27;;;;;;;13.95;4.07;;;;;;;;;;6182403;23;44629;-86
2022/06/17 09:19:58;;;;;;;10.27;3.63;;;;;;;;;;6182670;23;20022;-82
2022/06/17 09:22:27;;;;;;;8.23;3.33;;;;;;;;;;6182325;23;20026;-83
2022/06/17 09:24:56;;;;;;;8.55;3.40;;;;;;;;;;6182685;23;20018;-82
2022/06/17 09:27:34;;;;;;;7.45;3.55;;;;;;;;;;6184128;23;20018;-83
2022/06/17 09:30:04;;;;;;;16.48;3.70;;;;;;;;;;6182384;23;20021;-83
2022/06/17 09:32:37;;;;;;;10.35;2.95;;;;;;;;;;6182862;23;20006;-82
2022/06/17 09:35:23;;;;;;;14.90;3.38;;;;;;;;;;6177022;23;20029;-83
2022/06/17 09:37:57;;;;;;;6.18;3.15;;;;;;;;;;6167763;23;20050;-84
2022/06/17 09:40:28;;;;;;;7.00;2.50;;;;;;;;;;6169507;23;20077;-83
2022/06/17 09:43:04;;;;;;;7.95;2.70;;;;;;;;;;6167334;23;20105;-83
2022/06/17 09:45:36;;;;;;;9.32;3.30;;;;;;;;;;6167441;23;20022;-83
2022/06/17 09:48:09;;;;;;;7.05;3.03;;;;;;;;;;6170148;23;20046;-83
2022/06/17 09:50:50;;;;;;;10.25;3.30;;;;;;;;;;6168962;23;20022;-83
2022/06/17 09:53:26;;;;;;;6.15;3.00;;;;;;;;;;6168501;23;20017;-84
2022/06/17 09:56:38;;;;;;;6.50;3.25;;;;;;;;;;6169551;23;20074;-83
2022/06/17 09:59:56;;;;;;;7.43;3.38;;;;;;;;;;6088148;23;20082;-84
2022/06/17 10:02:48;;;;;;;9.90;3.38;;;;;;;;;;6100644;23;20383;-83
2022/06/17 10:05:43;;;;;;;9.07;3.55;;;;;;;;;;6106779;23;20029;-83
2022/06/17 10:08:19;;;;;;;7.90;3.05;;;;;;;;;;6106041;23;20094;-84
2022/06/17 10:10:56;;;;;;;8.48;3.47;;;;;;;;;;6105859;23;20023;-83
2022/06/17 10:14:06;;;;;;;11.60;3.10;;;;;;;;;;6088234;23;20023;-83
2022/06/17 10:19:47;;;;;;;6.75;2.97;;;;;;;;;;6049372;23;20020;-83
2022/06/17 10:22:31;;;;;;;9.85;3.10;;;;;;;;;;6049715;23;20028;-83
2022/06/17 10:25:12;;;;;;;8.60;2.80;;;;;;;;;;6049740;23;20019;-83
2022/06/17 10:28:09;;;;;;;11.07;3.17;;;;;;;;;;6050805;23;20145;-83
2022/06/17 10:30:55;;;;;;;8.68;3.33;;;;;;;;;;6104751;23;20100;-84
2022/06/17 10:33:36;;;;;;;5.40;2.78;;;;;;;;;;6109208;23;20019;-84
2022/06/17 10:36:09;;;;;;;6.07;2.70;;;;;;;;;;6107754;23;20881;-84
2022/06/17 10:38:48;;;;;;;7.82;2.92;;;;;;;;;;6109153;23;20088;-83
2022/06/17 10:41:25;;;;;;;4.57;2.53;;;;;;;;;;6113991;23;20028;-84
2022/06/17 10:43:57;;;;;;;5.30;2.70;;;;;;;;;;6114765;23;20491;-83
2022/06/17 10:46:28;;;;;;;9.23;2.88;;;;;;;;;;6114629;23;20014;-84
2022/06/17 10:49:24;;;;;;;6.10;2.60;;;;;;;;;;6098528;23;20030;-84
2022/06/17 10:51:58;;;;;;;10.25;3.05;;;;;;;;;;6115771;23;20026;-83
2022/06/17 10:54:39;;;;;;;9.40;2.85;;;;;;;;;;6162620;23;20032;-83
2022/06/17 10:57:30;;;;;;;12.10;3.33;;;;;;;;;;6168532;23;20100;-83
2022/06/17 11:00:28;;;;;;;7.78;3.38;;;;;;;;;;6169927;23;20018;-83
2022/06/17 11:03:17;;;;;;;10.27;4.68;;;;;;;;;;6158945;23;20089;-83
2022/06/17 11:06:13;;;;;;;10.07;3.93;;;;;;;;;;6169709;23;20117;-84
2022/06/17 11:08:40;;;;;;;9.50;3.13;;;;;;;;;;6159624;23;20060;-82
2022/06/17 11:14:37;;;;;;;4.82;2.30;;;;;;;;;;6171239;23;20046;-84
2022/06/17 11:17:35;;;;;;;6.93;2.58;;;;;;;;;;6150818;23;20022;-84
2022/06/17 11:23:26;;;;;;;8.25;3.05;;;;;;;;;;6172242;23;20026;-84
2022/06/17 11:26:10;;;;;;;6.72;3.17;;;;;;;;;;6168322;23;20022;-83
2022/06/17 11:28:47;;;;;;;8.10;3.13;;;;;;;;;;6172424;23;20010;-83
2022/06/17 11:31:22;;;;;;;7.90;3.10;;;;;;;;;;6170563;23;20014;-84
2022/06/17 11:34:02;;;;;;;6.90;3.00;;;;;;;;;;6177332;23;20041;-83
2022/06/17 11:36:35;;;;;;;6.80;2.65;;;;;;;;;;6174264;23;20024;-84
2022/06/17 11:39:28;;;;;;;8.75;3.15;;;;;;;;;;6176468;23;20025;-83
2022/06/17 11:42:06;;;;;;;5.50;2.53;;;;;;;;;;6160200;23;20452;-83
2022/06/17 11:44:34;;;;;;;7.05;2.75;;;;;;;;;;6179193;23;20017;-84
2022/06/17 11:47:07;;;;;;;9.90;2.70;;;;;;;;;;6183540;23;20010;-84
2022/06/17 11:49:39;;;;;;;8.20;2.38;;;;;;;;;;6157984;23;20016;-84
2022/06/17 11:52:11;;;;;;;10.35;2.85;;;;;;;;;;6157160;23;20017;-85
2022/06/17 11:54:54;;;;;;;7.10;3.00;;;;;;;;;;6160755;23;20010;-85
2022/06/17 11:57:30;;;;;;;8.80;3.00;;;;;;;;;;6158914;23;20074;-85
2022/06/17 11:59:59;;;;;;;5.38;2.75;;;;;;;;;;6159599;23;20002;-84
2022/06/17 12:02:28;;;;;;;8.40;2.70;;;;;;;;;;6157515;23;20022;-85
2022/06/17 12:05:14;;;;;;;8.18;3.00;;;;;;;;;;6159860;23;20002;-84
2022/06/17 12:07:55;;;;;;;5.47;2.40;;;;;;;;;;6160577;23;20021;-84
2022/06/17 12:10:38;;;;;;;10.27;2.78;;;;;;;;;;6159983;23;20009;-84
2022/06/17 12:13:13;;;;;;;9.98;2.60;;;;;;;;;;6186398;23;20066;-84
2022/06/17 12:15:44;;;;;;;10.75;2.50;;;;;;;;;;6186417;23;20031;-84
2022/06/17 12:18:16;;;;;;;9.82;3.00;;;;;;;;;;6160618;23;20021;-84
2022/06/17 12:20:44;;;;;;;9.95;2.70;;;;;;;;;;6160503;23;20018;-84
2022/06/17 12:23:17;;;;;;;7.93;2.30;;;;;;;;;;6160818;23;20160;-84
2022/06/17 12:25:50;;;;;;;6.53;2.40;;;;;;;;;;6160688;23;20002;-84
2022/06/17 12:28:35;;;;;;;8.32;2.40;;;;;;;;;;6162509;23;20046;-84
2022/06/17 12:31:24;;;;;;;9.38;2.00;;;;;;;;;;6161063;23;20124;-85
2022/06/17 12:33:52;;;;;;;4.80;2.10;;;;;;;;;;6186519;23;20021;-84
2022/06/17 12:36:40;;;;;;;5.13;1.90;;;;;;;;;;6160930;23;20014;-83
2022/06/17 12:39:15;;;;;;;4.28;1.77;;;;;;;;;;6185880;23;20013;-85
2022/06/17 12:41:47;;;;;;;6.47;2.20;;;;;;;;;;6160835;23;20010;-84
2022/06/17 12:44:24;;;;;;;8.05;2.00;;;;;;;;;;6185612;23;20013;-84
2022/06/17 12:46:56;;;;;;;5.30;1.80;;;;;;;;;;6186355;23;20012;-84
2022/06/17 12:55:08;;;;;;;3.60;1.70;;;;;;;;;;6183883;23;20022;-83
2022/06/17 12:57:41;;;;;;;3.05;1.63;;;;;;;;;;6183481;23;20013;-84
2022/06/17 13:00:21;;;;;;;6.65;1.80;;;;;;;;;;6184141;23;20010;-84
2022/06/17 13:02:51;;;;;;;5.35;1.83;;;;;;;;;;6184201;23;20073;-85
2022/06/17 13:05:18;;;;;;;4.05;1.73;;;;;;;;;;6185148;23;20008;-84
2022/06/17 13:07:49;;;;;;;3.20;1.70;;;;;;;;;;6184956;23;20017;-85
2022/06/17 13:10:41;;;;;;;5.50;1.80;;;;;;;;;;6185623;23;20023;-85
2022/06/17 13:13:18;;;;;;;2.35;1.58;;;;;;;;;;6183482;23;20018;-83
2022/06/17 13:16:00;;;;;;;5.40;1.83;;;;;;;;;;6184571;23;20242;-83
2022/06/17 13:18:50;;;;;;;4.63;2.10;;;;;;;;;;6185585;23;19998;-84
2022/06/17 13:21:34;;;;;;;5.53;2.22;;;;;;;;;;6185792;23;20018;-85
2022/06/17 13:24:01;;;;;;;4.88;1.90;;;;;;;;;;6185378;23;20098;-85
2022/06/17 13:26:36;;;;;;;10.70;1.92;;;;;;;;;;6184265;23;20002;-83
2022/06/17 13:29:07;;;;;;;4.22;1.73;;;;;;;;;;6183773;23;20058;-84
2022/06/17 13:31:34;;;;;;;7.82;1.70;;;;;;;;;;6186007;23;20065;-83
2022/06/17 13:34:09;;;;;;;4.47;1.70;;;;;;;;;;6184519;23;20013;-84
2022/06/17 13:36:45;;;;;;;5.25;1.67;;;;;;;;;;6185030;23;20018;-84
2022/06/17 13:39:17;;;;;;;7.45;1.80;;;;;;;;;;6185568;23;20002;-83
2022/06/17 13:41:47;;;;;;;3.38;1.63;;;;;;;;;;6184680;23;20006;-84
2022/06/17 13:44:27;;;;;;;6.47;1.80;;;;;;;;;;6184699;23;20016;-84
2022/06/17 13:47:06;;;;;;;3.22;1.90;;;;;;;;;;6183970;23;20009;-84
2022/06/17 13:49:45;;;;;;;4.10;1.90;;;;;;;;;;6184786;23;20053;-85
2022/06/17 13:52:25;;;;;;;5.32;1.70;;;;;;;;;;6185584;23;20009;-84
2022/06/17 13:54:59;;;;;;;7.55;1.90;;;;;;;;;;6184931;23;20026;-84
2022/06/17 13:57:33;;;;;;;5.30;1.77;;;;;;;;;;6184218;23;20014;-84
2022/06/17 14:00:20;;;;;;;7.32;1.70;;;;;;;;;;6184296;23;20010;-84
2022/06/17 14:02:56;;;;;;;5.00;1.88;;;;;;;;;;6184591;23;20010;-85
2022/06/17 14:05:40;;;;;;;6.68;1.70;;;;;;;;;;6184688;23;20002;-84
2022/06/17 14:08:09;;;;;;;6.70;1.50;;;;;;;;;;6184867;23;20007;-84
2022/06/17 14:11:31;;;;;;;10.55;1.90;;;;;;;;;;6184631;23;20030;-83
2022/06/17 14:13:45;;;;;;;4.95;1.60;;;;;;;;;;6184892;23;20021;-85
2022/06/17 14:16:15;;;;;;;14.27;1.80;;;;;;;;;;6184214;23;19998;-85
2022/06/17 14:18:49;;;;;;;5.55;1.90;;;;;;;;;;6184898;23;20014;-85
2022/06/17 14:21:24;;;;;;;6.57;1.92;;;;;;;;;;6184962;23;20010;-85
2022/06/17 14:23:51;;;;;;;5.60;1.50;;;;;;;;;;6184090;23;19994;-85
2022/06/17 14:26:34;;;;;;;3.97;1.45;;;;;;;;;;6184846;23;20006;-85
2022/06/17 14:29:15;;;;;;;8.43;1.60;;;;;;;;;;6184481;23;20003;-85
2022/06/17 14:31:51;;;;;;;4.75;1.88;;;;;;;;;;6184939;23;20058;-84
2022/06/17 14:34:22;;;;;;;5.70;1.50;;;;;;;;;;6184004;23;20363;-84
2022/06/17 14:36:52;;;;;;;5.97;1.70;;;;;;;;;;6183708;23;20006;-84
2022/06/17 14:39:28;;;;;;;5.57;1.60;;;;;;;;;;6184165;23;20113;-84
2022/06/17 14:42:14;;;;;;;7.65;1.77;;;;;;;;;;6184592;23;20010;-85
2022/06/17 14:44:44;;;;;;;8.63;1.90;;;;;;;;;;6184413;23;20002;-85
2022/06/17 14:47:29;;;;;;;5.00;1.85;;;;;;;;;;6185037;23;20006;-84
2022/06/17 14:49:57;;;;;;;5.95;1.90;;;;;;;;;;6159866;23;20016;-85
2022/06/17 14:52:28;;;;;;;4.57;1.60;;;;;;;;;;6159782;23;20010;-85
2022/06/17 14:54:59;;;;;;;4.47;1.95;;;;;;;;;;6160229;23;20078;-84
2022/06/17 14:57:27;;;;;;;6.18;2.15;;;;;;;;;;6159824;23;20066;-84
2022/06/17 15:00:11;;;;;;;6.22;1.60;;;;;;;;;;6161328;23;20014;-84
2022/06/17 15:02:42;;;;;;;4.70;1.50;;;;;;;;;;6161658;23;20602;-85
2022/06/17 15:05:39;;;;;;;3.00;1.48;;;;;;;;;;6160109;23;20006;-84
2022/06/17 15:08:12;;;;;;;3.15;1.70;;;;;;;;;;6159237;23;20009;-85
2022/06/17 15:11:07;;;;;;;5.97;1.50;;;;;;;;;;6161340;23;20030;-84
2022/06/17 15:16:25;;;;;;;8.55;1.60;;;;;;;;;;6186586;23;20014;-84
2022/06/17 15:19:00;;;;;;;7.22;1.70;;;;;;;;;;6162675;23;20005;-85
2022/06/17 15:21:32;;;;;;;6.10;1.80;;;;;;;;;;6160879;23;20010;-85
2022/06/17 15:24:10;;;;;;;8.88;1.80;;;;;;;;;;6160641;23;20022;-86
2022/06/17 15:26:58;;;;;;;6.55;1.85;;;;;;;;;;6161185;23;20031;-85
2022/06/17 15:29:27;;;;;;;2.90;1.70;;;;;;;;;;6160895;23;20022;-85
2022/06/17 15:31:57;;;;;;;6.72;1.88;;;;;;;;;;6160679;23;20037;-85
2022/06/17 15:34:32;;;;;;;8.20;1.77;;;;;;;;;;6161898;23;20006;-85